createdAt,value
2022-12-06T00:01:25.641Z,12.02
2022-12-06T00:03:55.921Z,11.25
2022-12-06T00:06:25.200Z,11.85
2022-12-06T00:08:52.939Z,12.50
2022-12-06T00:11:28.832Z,12.25
2022-12-06T00:13:58.117Z,11.98
2022-12-06T00:16:26.588Z,11.68
2022-12-06T00:18:54.341Z,12.20
2022-12-06T00:21:28.514Z,12.48
2022-12-06T00:23:58.641Z,12.18
2022-12-06T00:26:26.572Z,11.70
2022-12-06T00:28:55.899Z,12.13
2022-12-06T00:31:25.533Z,11.57
2022-12-06T00:33:53.072Z,11.38
2022-12-06T00:36:26.241Z,11.77
2022-12-06T00:38:53.554Z,12.77
2022-12-06T00:41:23.241Z,11.40
2022-12-06T00:43:51.691Z,11.38
2022-12-06T00:46:24.191Z,12.07
2022-12-06T00:48:52.854Z,12.45
2022-12-06T00:51:21.271Z,10.93
2022-12-06T00:53:49.041Z,11.80
2022-12-06T00:56:16.735Z,11.20
2022-12-06T00:58:44.423Z,12.20
2022-12-06T01:01:15.988Z,11.75
2022-12-06T01:03:44.891Z,11.77
2022-12-06T01:06:14.804Z,11.82
2022-12-06T01:08:42.992Z,12.02
2022-12-06T01:11:11.811Z,11.65
2022-12-06T01:13:39.272Z,12.52
2022-12-06T01:16:13.318Z,11.77
2022-12-06T01:18:41.622Z,11.35
2022-12-06T01:21:12.091Z,11.93
2022-12-06T01:23:39.315Z,11.85
2022-12-06T01:26:07.322Z,12.75
2022-12-06T01:28:35.015Z,11.50
2022-12-06T01:31:07.960Z,10.80
2022-12-06T01:33:35.471Z,11.73
2022-12-06T01:36:02.802Z,12.07
2022-12-06T01:38:30.093Z,12.65
2022-12-06T01:40:57.822Z,12.00
2022-12-06T01:43:32.453Z,11.07
2022-12-06T01:46:17.016Z,11.85
2022-12-06T01:48:44.771Z,11.57
2022-12-06T01:51:13.943Z,11.77
2022-12-06T01:53:43.932Z,11.57
2022-12-06T01:56:11.652Z,11.80
2022-12-06T01:58:41.642Z,10.95
2022-12-06T02:01:10.219Z,11.40
2022-12-06T02:03:38.052Z,11.57
2022-12-06T02:06:08.731Z,11.38
2022-12-06T02:08:36.911Z,11.35
2022-12-06T02:11:05.142Z,11.98
2022-12-06T02:13:35.385Z,11.00
2022-12-06T02:16:17.930Z,12.75
2022-12-06T02:19:30.592Z,11.25
2022-12-06T02:22:06.862Z,12.65
2022-12-06T02:25:34.220Z,12.85
2022-12-06T02:28:30.862Z,12.60
2022-12-06T02:31:18.647Z,12.02
2022-12-06T02:33:59.334Z,12.85
2022-12-06T02:36:44.262Z,13.15
2022-12-06T02:39:33.536Z,13.93
2022-12-06T02:42:09.010Z,13.23
2022-12-06T02:44:42.361Z,11.90
2022-12-06T02:47:14.572Z,11.63
2022-12-06T02:49:46.812Z,13.40
2022-12-06T02:52:15.192Z,13.23
2022-12-06T02:54:45.713Z,12.52
2022-12-06T02:57:12.903Z,13.18
2022-12-06T02:59:40.032Z,13.32
2022-12-06T03:02:11.405Z,13.65
2022-12-06T03:04:53.983Z,13.27
2022-12-06T03:07:28.852Z,12.65
2022-12-06T03:10:16.210Z,12.68
2022-12-06T03:13:01.242Z,13.02
2022-12-06T03:16:02.759Z,12.20
2022-12-06T03:18:32.932Z,12.75
2022-12-06T03:21:08.231Z,12.23
2022-12-06T03:23:42.153Z,12.88
2022-12-06T03:28:39.445Z,13.85
2022-12-06T03:31:12.713Z,12.93
2022-12-06T03:34:05.183Z,12.95
2022-12-06T03:36:33.392Z,13.88
2022-12-06T03:39:06.134Z,13.25
2022-12-06T03:41:38.732Z,12.73
2022-12-06T03:44:05.973Z,13.38
2022-12-06T03:46:41.575Z,14.82
2022-12-06T03:49:14.932Z,15.07
2022-12-06T03:51:44.349Z,15.18
2022-12-06T03:54:12.192Z,14.02
2022-12-06T03:56:39.931Z,14.70
2022-12-06T03:59:09.550Z,12.63
2022-12-06T04:01:37.482Z,14.57
2022-12-06T04:04:05.232Z,13.10
2022-12-06T04:06:32.869Z,13.35
2022-12-06T04:09:19.135Z,12.77
2022-12-06T04:11:46.690Z,13.23
2022-12-06T04:14:14.070Z,12.23
2022-12-06T04:16:59.984Z,12.13
2022-12-06T04:19:27.360Z,12.68
2022-12-06T04:22:13.249Z,11.57
2022-12-06T04:24:40.472Z,12.10
2022-12-06T04:27:26.110Z,10.80
2022-12-06T04:30:11.742Z,11.43
2022-12-06T04:32:57.619Z,10.02
2022-12-06T04:35:43.460Z,11.60
2022-12-06T04:38:29.329Z,11.32
2022-12-06T04:40:56.571Z,10.63
2022-12-06T04:43:42.302Z,12.07
2022-12-06T04:46:11.828Z,10.35
2022-12-06T04:48:39.319Z,10.43
2022-12-06T04:51:06.909Z,10.35
2022-12-06T04:53:34.150Z,11.48
2022-12-06T04:56:01.889Z,11.07
2022-12-06T04:58:29.171Z,11.43
2022-12-06T05:00:56.439Z,11.45
2022-12-06T05:03:23.705Z,12.70
2022-12-06T05:05:51.056Z,11.85
2022-12-06T05:08:18.321Z,12.93
2022-12-06T05:10:52.221Z,11.57
2022-12-06T05:15:52.222Z,11.80
2022-12-06T05:18:19.727Z,11.15
2022-12-06T05:20:47.009Z,12.85
2022-12-06T05:23:14.386Z,12.55
2022-12-06T05:25:41.615Z,12.50
2022-12-06T05:28:11.615Z,12.20
2022-12-06T05:30:38.833Z,12.38
2022-12-06T05:33:06.039Z,12.25
2022-12-06T05:35:33.194Z,12.00
2022-12-06T05:38:00.436Z,13.88
2022-12-06T05:40:27.646Z,13.27
2022-12-06T05:42:54.827Z,12.73
2022-12-06T05:45:22.055Z,13.15
2022-12-06T05:47:49.285Z,12.52
2022-12-06T05:50:16.505Z,12.32
2022-12-06T05:52:43.745Z,12.60
2022-12-06T05:55:10.935Z,13.23
2022-12-06T05:57:41.230Z,14.65
2022-12-06T06:00:13.585Z,13.82
2022-12-06T06:02:40.806Z,14.13
2022-12-06T06:05:08.565Z,13.80
2022-12-06T06:07:36.212Z,14.77
2022-12-06T06:10:04.775Z,13.98
2022-12-06T06:12:31.966Z,13.30
2022-12-06T06:14:59.283Z,14.98
2022-12-06T06:17:26.435Z,14.63
2022-12-06T06:19:53.615Z,16.02
2022-12-06T06:22:23.225Z,15.90
2022-12-06T06:24:51.745Z,15.70
2022-12-06T06:27:18.893Z,15.82
2022-12-06T06:29:46.145Z,15.77
2022-12-06T06:32:13.941Z,16.33
2022-12-06T06:34:41.304Z,15.48
2022-12-06T06:37:08.505Z,15.32
2022-12-06T06:39:35.635Z,15.50
2022-12-06T06:42:02.796Z,15.30
2022-12-06T06:44:30.114Z,15.10
2022-12-06T06:46:57.376Z,15.93
2022-12-06T06:49:24.877Z,15.18
2022-12-06T06:51:52.078Z,16.45
2022-12-06T06:54:19.258Z,16.52
2022-12-06T06:56:46.416Z,17.52
2022-12-06T06:59:13.625Z,15.48
2022-12-06T07:01:40.857Z,15.77
2022-12-06T07:04:08.095Z,15.40
2022-12-06T07:06:35.285Z,15.88
2022-12-06T07:09:02.611Z,17.30
2022-12-06T07:11:30.035Z,18.80
2022-12-06T07:13:57.336Z,16.38
2022-12-06T07:16:24.599Z,18.42
2022-12-06T07:18:51.906Z,17.83
2022-12-06T07:21:19.175Z,16.80
2022-12-06T07:23:46.747Z,19.90
2022-12-06T07:26:17.735Z,18.65
2022-12-06T07:28:46.226Z,18.60
2022-12-06T07:31:16.268Z,19.92
2022-12-06T07:33:44.804Z,18.65
2022-12-06T07:36:14.204Z,18.40
2022-12-06T07:38:43.299Z,16.52
2022-12-06T07:41:32.039Z,14.45
2022-12-06T07:44:19.938Z,14.90
2022-12-06T07:46:48.166Z,15.55
2022-12-06T07:49:18.628Z,15.02
2022-12-06T07:51:46.255Z,13.70
2022-12-06T07:54:15.300Z,11.73
2022-12-06T07:56:43.386Z,14.30
2022-12-06T07:59:11.256Z,12.40
2022-12-06T08:01:38.725Z,12.52
2022-12-06T08:04:07.012Z,11.38
2022-12-06T08:06:34.831Z,12.38
2022-12-06T08:09:02.196Z,15.13
2022-12-06T08:11:29.455Z,13.68
2022-12-06T08:13:56.611Z,13.38
2022-12-06T08:16:23.991Z,13.10
2022-12-06T08:18:52.786Z,12.20
2022-12-06T08:21:20.125Z,17.58
2022-12-06T08:23:47.338Z,16.27
2022-12-06T08:26:16.206Z,15.18
2022-12-06T08:28:43.568Z,17.92
2022-12-06T08:31:15.196Z,23.58
2022-12-06T08:33:43.005Z,23.05
2022-12-06T08:36:12.851Z,21.60
2022-12-06T08:38:40.786Z,20.75
2022-12-06T08:41:29.477Z,21.58
2022-12-06T08:43:58.025Z,20.45
2022-12-06T08:46:25.672Z,21.27
2022-12-06T08:48:53.536Z,19.58
2022-12-06T08:51:20.795Z,19.42
2022-12-06T08:53:48.206Z,16.77
2022-12-06T08:56:15.975Z,18.23
2022-12-06T08:58:43.367Z,20.02
2022-12-06T09:01:23.371Z,18.35
2022-12-06T09:03:51.135Z,18.90
2022-12-06T09:06:19.533Z,18.27
2022-12-06T09:08:47.886Z,19.27
2022-12-06T09:11:16.206Z,20.33
2022-12-06T09:13:44.214Z,20.58
2022-12-06T09:16:19.867Z,20.08
2022-12-06T09:18:48.089Z,13.60
2022-12-06T09:21:19.096Z,14.38
2022-12-06T09:23:46.661Z,15.00
2022-12-06T09:26:14.167Z,15.27
2022-12-06T09:28:42.955Z,14.88
2022-12-06T09:31:10.500Z,16.73
2022-12-06T09:33:38.415Z,14.73
2022-12-06T09:36:16.225Z,14.20
2022-12-06T09:38:45.407Z,12.98
2022-12-06T09:41:43.436Z,13.00
2022-12-06T09:44:49.986Z,11.85
2022-12-06T09:47:29.207Z,13.02
2022-12-06T09:50:29.008Z,12.15
2022-12-06T09:53:14.849Z,13.23
2022-12-06T09:55:50.798Z,11.15
2022-12-06T09:58:47.119Z,12.52
2022-12-06T10:01:39.754Z,12.90
2022-12-06T10:04:25.537Z,14.45
2022-12-06T10:07:19.304Z,12.55
2022-12-06T10:10:16.718Z,11.68
2022-12-06T10:12:50.000Z,11.90
2022-12-06T10:15:30.558Z,12.95
2022-12-06T10:18:01.240Z,12.90
2022-12-06T10:20:43.575Z,11.35
2022-12-06T10:23:21.920Z,13.10
2022-12-06T10:26:15.647Z,11.95
2022-12-06T10:28:48.479Z,12.48
2022-12-06T10:31:27.730Z,12.23
2022-12-06T10:34:06.417Z,11.82
2022-12-06T10:36:42.269Z,12.85
2022-12-06T10:39:41.057Z,12.35
2022-12-06T10:42:27.069Z,13.35
2022-12-06T10:45:47.636Z,12.07
2022-12-06T10:48:43.659Z,11.85
2022-12-06T10:51:21.438Z,12.13
2022-12-06T10:53:54.903Z,12.43
2022-12-06T10:56:35.077Z,11.75
2022-12-06T10:59:13.872Z,12.48
2022-12-06T11:01:43.771Z,12.10
2022-12-06T11:04:36.140Z,12.23
2022-12-06T11:07:14.048Z,12.73
2022-12-06T11:09:48.592Z,12.73
2022-12-06T11:12:33.870Z,12.30
2022-12-06T11:15:15.667Z,12.10
2022-12-06T11:17:48.118Z,10.65
2022-12-06T11:20:26.058Z,10.68
2022-12-06T11:23:11.197Z,10.93
2022-12-06T11:26:04.820Z,12.15
2022-12-06T11:28:35.845Z,11.63
2022-12-06T11:31:10.023Z,11.75
2022-12-06T11:33:37.559Z,11.65
2022-12-06T11:36:07.218Z,11.43
2022-12-06T11:38:37.367Z,11.57
2022-12-06T11:41:10.080Z,11.68
2022-12-06T11:43:37.997Z,11.95
2022-12-06T11:46:07.246Z,11.90
2022-12-06T11:48:35.828Z,11.75
2022-12-06T11:51:03.191Z,11.52
2022-12-06T11:54:16.060Z,11.65
2022-12-06T11:56:43.619Z,12.05
2022-12-06T11:59:28.818Z,11.85
2022-12-06T12:02:00.980Z,12.05
2022-12-06T12:04:34.038Z,11.50
2022-12-06T12:07:10.450Z,11.10
2022-12-06T12:10:02.963Z,10.77
2022-12-06T12:13:07.100Z,10.80
2022-12-06T12:15:36.099Z,10.50
2022-12-06T12:18:05.858Z,10.40
2022-12-06T12:20:44.856Z,10.20
2022-12-06T12:23:27.807Z,10.55
2022-12-06T12:26:15.367Z,9.57
2022-12-06T12:28:45.058Z,9.70
2022-12-06T12:31:22.528Z,9.45
2022-12-06T12:34:20.498Z,9.65
2022-12-06T12:37:20.008Z,9.00
2022-12-06T12:42:36.757Z,9.73
2022-12-06T12:45:06.254Z,8.82
2022-12-06T12:47:33.579Z,9.32
2022-12-06T12:50:18.766Z,7.78
2022-12-06T12:52:46.908Z,7.97
2022-12-06T12:55:19.247Z,8.63
2022-12-06T12:57:52.141Z,9.73
2022-12-06T13:00:21.417Z,8.65
2022-12-06T13:02:58.968Z,8.27
2022-12-06T13:05:36.342Z,8.60
2022-12-06T13:08:15.391Z,8.52
2022-12-06T13:10:46.958Z,10.73
2022-12-06T13:13:22.080Z,8.43
2022-12-06T13:15:52.579Z,7.95
2022-12-06T13:18:41.647Z,9.30
2022-12-06T13:21:32.020Z,8.65
2022-12-06T13:24:13.691Z,8.05
2022-12-06T13:26:49.829Z,8.77
2022-12-06T13:29:33.699Z,8.00
2022-12-06T13:32:26.728Z,7.50
2022-12-06T13:35:20.442Z,7.68
2022-12-06T13:37:56.080Z,7.60
2022-12-06T13:40:52.437Z,8.00
2022-12-06T13:43:25.501Z,8.20
2022-12-06T13:46:26.612Z,8.50
2022-12-06T13:49:22.778Z,7.50
2022-12-06T13:51:50.297Z,7.40
2022-12-06T13:54:17.458Z,7.35
2022-12-06T13:56:44.971Z,9.50
2022-12-06T13:59:12.181Z,8.57
2022-12-06T14:01:58.853Z,8.60
2022-12-06T14:09:49.708Z,8.68
2022-12-06T14:12:26.008Z,8.73
2022-12-06T14:15:01.706Z,7.75
2022-12-06T14:20:31.147Z,7.60
2022-12-06T14:22:58.781Z,8.43
2022-12-06T14:25:29.800Z,7.38
2022-12-06T14:28:06.918Z,4.45
2022-12-06T14:30:34.483Z,6.40
2022-12-06T14:33:01.880Z,7.22
2022-12-06T14:35:36.350Z,7.22
2022-12-06T14:38:25.417Z,6.45
2022-12-06T14:41:11.728Z,7.53
2022-12-06T14:43:39.679Z,6.78
2022-12-06T14:46:12.068Z,6.55
2022-12-06T14:48:57.837Z,6.13
2022-12-06T14:51:27.712Z,6.75
2022-12-06T14:53:54.937Z,7.50
2022-12-06T14:56:25.217Z,6.88
2022-12-06T14:58:52.899Z,6.57
2022-12-06T15:01:26.777Z,7.95
2022-12-06T15:06:53.338Z,7.68
2022-12-06T15:09:22.427Z,7.43
2022-12-06T15:12:08.407Z,8.07
2022-12-06T15:14:35.657Z,7.47
2022-12-06T15:17:10.597Z,8.30
2022-12-06T15:19:50.897Z,8.43
2022-12-06T15:22:25.461Z,8.63
2022-12-06T15:24:55.647Z,7.93
2022-12-06T15:27:26.707Z,8.88
2022-12-06T15:29:54.452Z,9.25
2022-12-06T15:32:23.897Z,8.57
2022-12-06T15:34:51.147Z,8.95
2022-12-06T15:40:06.312Z,9.30
2022-12-06T15:42:33.527Z,9.48
2022-12-06T15:45:01.408Z,9.20
2022-12-06T15:47:28.807Z,8.10
2022-12-06T15:49:58.495Z,9.32
2022-12-06T15:52:26.917Z,9.52
2022-12-06T15:54:54.146Z,9.02
2022-12-06T15:57:21.357Z,8.35
2022-12-06T15:59:48.554Z,10.00
2022-12-06T16:02:18.018Z,10.02
2022-12-06T16:04:45.936Z,8.75
2022-12-06T16:07:19.054Z,8.90
2022-12-06T16:09:47.257Z,9.05
2022-12-06T16:12:14.471Z,9.68
2022-12-06T16:14:41.727Z,9.38
2022-12-06T16:17:08.986Z,9.77
2022-12-06T16:19:54.528Z,9.45
2022-12-06T16:22:44.426Z,9.75
2022-12-06T16:25:11.708Z,9.35
2022-12-06T16:27:38.947Z,9.13
2022-12-06T16:32:48.170Z,10.10
2022-12-06T16:35:15.387Z,10.85
2022-12-06T16:37:42.587Z,9.88
2022-12-06T16:40:20.517Z,9.70
2022-12-06T16:42:47.736Z,10.05
2022-12-06T16:45:15.866Z,8.98
2022-12-06T16:47:45.588Z,9.32
2022-12-06T16:50:23.986Z,9.32
2022-12-06T16:52:52.437Z,9.38
2022-12-06T16:55:20.137Z,8.52
2022-12-06T16:57:47.487Z,9.93
2022-12-06T17:00:15.379Z,14.43
2022-12-06T17:02:44.566Z,14.38
2022-12-06T17:05:19.656Z,12.57
2022-12-06T17:07:47.413Z,13.77
2022-12-06T17:10:16.056Z,13.68
2022-12-06T17:12:43.597Z,14.35
2022-12-06T17:15:17.976Z,12.52
2022-12-06T17:17:45.447Z,12.75
2022-12-06T17:20:46.166Z,10.75
2022-12-06T17:23:15.616Z,12.57
2022-12-06T17:25:43.176Z,14.57
2022-12-06T17:28:10.376Z,13.10
2022-12-06T17:30:53.510Z,12.57
2022-12-06T17:33:20.787Z,12.40
2022-12-06T17:35:47.977Z,13.98
2022-12-06T17:38:15.249Z,13.27
2022-12-06T17:40:42.448Z,14.07
2022-12-06T17:43:10.096Z,13.52
2022-12-06T17:45:37.288Z,13.55
2022-12-06T17:48:04.893Z,14.05
2022-12-06T17:50:46.817Z,14.93
2022-12-06T17:53:19.596Z,14.73
2022-12-06T17:56:33.947Z,21.25
2022-12-06T18:02:15.523Z,13.48
2022-12-06T18:04:44.117Z,12.32
2022-12-06T18:07:13.115Z,14.00
2022-12-06T18:09:40.519Z,14.88
2022-12-06T18:12:12.492Z,14.35
2022-12-06T18:14:39.851Z,13.55
2022-12-06T18:17:07.222Z,13.75
2022-12-06T18:19:35.065Z,14.85
2022-12-06T18:22:02.411Z,13.80
2022-12-06T18:24:35.365Z,14.00
2022-12-06T18:27:07.305Z,13.52
2022-12-06T18:29:34.846Z,12.80
2022-12-06T18:32:02.443Z,12.48
2022-12-06T18:34:29.896Z,13.35
2022-12-06T18:36:57.057Z,12.35
2022-12-06T18:39:28.127Z,13.60
2022-12-06T18:41:55.756Z,13.10
2022-12-06T18:44:23.527Z,14.00
2022-12-06T18:46:51.036Z,13.57
2022-12-06T18:49:18.567Z,13.57
2022-12-06T18:51:46.040Z,14.35
2022-12-06T18:54:14.299Z,13.35
2022-12-06T18:56:42.580Z,16.80
2022-12-06T18:59:11.922Z,13.60
2022-12-06T19:01:40.741Z,13.45
2022-12-06T19:04:13.379Z,14.10
2022-12-06T19:06:40.687Z,13.63
2022-12-06T19:09:11.817Z,12.90
2022-12-06T19:11:41.170Z,14.45
2022-12-06T19:14:08.989Z,14.13
2022-12-06T19:16:45.415Z,13.88
2022-12-06T19:19:31.079Z,12.27
2022-12-06T19:21:58.445Z,14.32
2022-12-06T19:24:26.849Z,12.40
2022-12-06T19:27:20.609Z,13.68
2022-12-06T19:30:08.354Z,14.15
2022-12-06T19:33:00.112Z,12.85
2022-12-06T19:35:42.066Z,14.55
2022-12-06T19:38:36.841Z,13.43
2022-12-06T19:41:23.998Z,14.45
2022-12-06T19:44:21.712Z,13.40
2022-12-06T19:47:04.406Z,14.50
2022-12-06T19:49:34.876Z,13.18
2022-12-06T19:52:02.276Z,14.35
2022-12-06T19:54:32.607Z,13.07
2022-12-06T19:57:01.134Z,12.15
2022-12-06T19:59:34.826Z,12.50
2022-12-06T20:02:14.956Z,13.02
2022-12-06T20:05:20.959Z,12.63
2022-12-06T20:07:56.960Z,13.50
2022-12-06T20:10:27.077Z,11.30
2022-12-06T20:12:54.368Z,12.40
2022-12-06T20:15:21.518Z,12.82
2022-12-06T20:17:48.687Z,12.90
2022-12-06T20:20:15.978Z,11.93
2022-12-06T20:22:43.269Z,12.15
2022-12-06T20:25:10.447Z,11.00
2022-12-06T20:27:52.576Z,12.40
2022-12-06T20:30:21.867Z,11.90
2022-12-06T20:32:49.948Z,12.40
2022-12-06T20:35:17.347Z,13.65
2022-12-06T20:37:44.518Z,12.75
2022-12-06T20:40:12.311Z,13.68
2022-12-06T20:42:39.617Z,11.90
2022-12-06T20:45:07.291Z,12.55
2022-12-06T20:47:34.458Z,13.65
2022-12-06T20:50:01.936Z,12.45
2022-12-06T20:52:29.497Z,11.82
2022-12-06T20:54:56.787Z,12.43
2022-12-06T20:57:24.236Z,12.00
2022-12-06T20:59:51.427Z,11.43
2022-12-06T21:02:18.635Z,11.32
2022-12-06T21:04:45.872Z,11.50
2022-12-06T21:07:13.016Z,11.35
2022-12-06T21:12:53.155Z,11.73
2022-12-06T21:15:20.444Z,11.85
2022-12-06T21:17:47.602Z,11.45
2022-12-06T21:20:14.930Z,10.68
2022-12-06T21:22:42.077Z,11.23
2022-12-06T21:25:09.646Z,12.57
2022-12-06T21:27:36.820Z,11.57
2022-12-06T21:30:04.616Z,10.52
2022-12-06T21:32:31.936Z,11.20
2022-12-06T21:34:59.387Z,13.23
2022-12-06T21:37:26.756Z,12.95
2022-12-06T21:39:53.926Z,12.02
2022-12-06T21:42:21.827Z,11.65
2022-12-06T21:44:49.230Z,11.80
2022-12-06T21:47:16.476Z,11.57
2022-12-06T21:49:43.753Z,10.25
2022-12-06T21:52:10.913Z,10.07
2022-12-06T21:54:38.073Z,12.60
2022-12-06T21:57:05.282Z,12.48
2022-12-06T21:59:32.452Z,11.48
2022-12-06T22:01:59.650Z,12.55
2022-12-06T22:04:26.935Z,11.88
2022-12-06T22:06:54.092Z,12.75
2022-12-06T22:09:21.282Z,12.93
2022-12-06T22:11:48.775Z,12.98
2022-12-06T22:14:15.973Z,12.75
2022-12-06T22:16:43.602Z,13.00
2022-12-06T22:19:10.843Z,14.27
2022-12-06T22:21:38.083Z,14.38
2022-12-06T22:24:05.446Z,14.50
2022-12-06T22:26:32.633Z,13.57
2022-12-06T22:29:00.814Z,14.80
2022-12-06T22:31:30.480Z,13.82
2022-12-06T22:33:58.296Z,15.80
2022-12-06T22:36:25.963Z,15.07
2022-12-06T22:38:55.580Z,14.68
2022-12-06T22:41:24.003Z,13.95
2022-12-06T22:43:56.723Z,14.02
2022-12-06T22:46:24.183Z,13.55
2022-12-06T22:48:51.473Z,13.88
2022-12-06T22:51:24.513Z,14.77
2022-12-06T22:54:03.212Z,13.50
2022-12-06T22:56:31.364Z,13.02
2022-12-06T22:58:59.864Z,13.93
2022-12-06T23:01:32.480Z,13.75
2022-12-06T23:04:01.747Z,14.45
2022-12-06T23:06:29.342Z,13.00
2022-12-06T23:08:56.955Z,14.02
2022-12-06T23:11:30.246Z,13.02
2022-12-06T23:13:58.512Z,15.55
2022-12-06T23:16:28.399Z,13.40
2022-12-06T23:18:56.696Z,14.32
2022-12-06T23:21:32.334Z,13.18
2022-12-06T23:24:02.559Z,13.98
2022-12-06T23:26:32.771Z,14.00
2022-12-06T23:29:00.404Z,14.27
2022-12-06T23:31:30.122Z,13.95
2022-12-06T23:34:04.733Z,15.43
2022-12-06T23:36:33.903Z,14.25
2022-12-06T23:39:01.352Z,14.02
2022-12-06T23:41:30.283Z,13.52
2022-12-06T23:43:58.826Z,12.63
2022-12-06T23:46:29.405Z,13.65
2022-12-06T23:48:57.543Z,13.65
2022-12-06T23:51:34.200Z,13.15
2022-12-06T23:54:03.335Z,13.73
2022-12-06T23:56:33.532Z,13.52
2022-12-06T23:59:01.701Z,13.57
